Time;durP1;ratioP1;P1;durP2;ratioP2;P2;SDS_P1;SDS_P2;PMS_P1;PMS_P2;Temp;Humidity;BMP_temperature;BMP_pressure;BME280_temperature;BME280_humidity;BME280_pressure;Samples;Min_cycle;Max_cycle;Signal;HPM_P1;HPM_P2
2021/09/06 00:00:06;;;;;;;43.07;16.23;;;13.80;97.30;;;;;;5037713;28;20643;-83
2021/09/06 00:02:32;;;;;;;38.80;14.30;;;13.70;97.30;;;;;;5037300;28;20183;-83
2021/09/06 00:04:57;;;;;;;29.10;13.40;;;13.70;97.30;;;;;;5037184;28;20465;-83
2021/09/06 00:07:23;;;;;;;36.40;15.40;;;13.60;97.30;;;;;;5054765;28;20168;-83
2021/09/06 00:09:58;;;;;;;25.23;12.80;;;13.50;97.30;;;;;;5054373;28;20183;-83
2021/09/06 00:12:23;;;;;;;34.40;14.47;;;13.50;97.30;;;;;;5035859;28;20205;-83
2021/09/06 00:14:49;;;;;;;34.20;14.37;;;13.50;97.30;;;;;;5037071;28;20434;-84
2021/09/06 00:17:14;;;;;;;31.03;13.17;;;13.50;97.30;;;;;;5037446;28;20189;-83
2021/09/06 00:19:40;;;;;;;29.30;13.57;;;13.40;97.30;;;;;;5035554;28;20192;-83
2021/09/06 00:22:06;;;;;;;29.20;12.70;;;13.40;97.30;;;;;;5035379;28;20275;-82
2021/09/06 00:24:33;;;;;;;28.83;13.17;;;13.40;97.30;;;;;;5035182;28;20617;-83
2021/09/06 00:26:59;;;;;;;33.70;14.63;;;13.40;97.30;;;;;;5036286;28;20643;-83
2021/09/06 00:29:24;;;;;;;32.47;14.30;;;13.40;97.30;;;;;;5036596;28;20414;-83
2021/09/06 00:31:50;;;;;;;33.03;14.53;;;13.40;97.30;;;;;;5035838;28;20188;-83
2021/09/06 00:34:15;;;;;;;28.20;12.20;;;13.40;97.30;;;;;;5036401;28;20222;-83
2021/09/06 00:36:41;;;;;;;33.03;15.87;;;13.40;97.30;;;;;;5034883;28;20721;-83
2021/09/06 00:39:06;;;;;;;29.83;13.30;;;13.40;97.30;;;;;;5035562;28;20168;-83
2021/09/06 00:41:32;;;;;;;34.40;14.70;;;13.40;97.30;;;;;;5035366;28;20588;-83
2021/09/06 00:43:58;;;;;;;37.20;14.30;;;13.30;97.30;;;;;;5034825;28;20238;-83
2021/09/06 00:46:23;;;;;;;35.57;14.80;;;13.30;97.30;;;;;;5034036;28;20218;-84
2021/09/06 00:48:49;;;;;;;35.00;13.73;;;13.30;97.30;;;;;;5025397;28;20214;-84
2021/09/06 00:51:15;;;;;;;30.53;13.57;;;13.30;97.30;;;;;;5014667;28;21019;-83
2021/09/06 00:53:41;;;;;;;34.23;14.97;;;13.30;97.30;;;;;;5014682;28;20419;-83
2021/09/06 00:56:07;;;;;;;30.40;13.60;;;13.20;97.30;;;;;;5032651;28;20442;-83
2021/09/06 00:58:32;;;;;;;27.00;12.67;;;13.20;97.30;;;;;;5053707;28;20180;-83
2021/09/06 01:00:58;;;;;;;27.83;11.00;;;13.10;97.30;;;;;;5036171;28;20180;-83
2021/09/06 01:03:23;;;;;;;32.90;13.77;;;13.10;97.30;;;;;;5035804;28;20204;-83
2021/09/06 01:05:49;;;;;;;33.00;13.30;;;13.00;97.30;;;;;;5035086;28;20265;-83
2021/09/06 01:08:14;;;;;;;26.30;11.83;;;13.00;97.30;;;;;;5035361;28;20237;-82
2021/09/06 01:10:40;;;;;;;31.23;13.30;;;13.00;97.30;;;;;;5034573;28;20225;-83
2021/09/06 01:13:05;;;;;;;24.33;12.00;;;13.00;97.30;;;;;;5034728;28;20271;-82
2021/09/06 01:15:31;;;;;;;26.90;12.50;;;12.90;97.30;;;;;;5033341;28;20234;-83
2021/09/06 01:17:58;;;;;;;28.50;12.90;;;12.90;97.30;;;;;;5033919;28;20175;-84
2021/09/06 01:20:23;;;;;;;27.00;13.30;;;12.90;97.30;;;;;;5034246;28;21202;-83
2021/09/06 01:22:49;;;;;;;28.77;12.63;;;12.90;97.30;;;;;;5034038;28;20426;-83
2021/09/06 01:25:16;;;;;;;30.73;13.20;;;12.90;97.30;;;;;;5033863;28;20208;-83
2021/09/06 01:27:43;;;;;;;28.50;12.63;;;12.90;97.30;;;;;;5034723;28;20187;-83
2021/09/06 01:30:09;;;;;;;29.60;12.60;;;12.90;97.30;;;;;;5035487;28;20762;-83
2021/09/06 01:32:34;;;;;;;35.77;14.70;;;12.90;97.30;;;;;;5052623;28;20430;-83
2021/09/06 01:35:00;;;;;;;32.33;13.43;;;12.90;97.30;;;;;;5034799;28;20485;-83
2021/09/06 01:37:25;;;;;;;33.23;13.17;;;12.90;97.30;;;;;;5034031;28;20179;-83
2021/09/06 01:39:51;;;;;;;34.03;13.07;;;12.80;97.30;;;;;;5034236;28;20172;-83
2021/09/06 01:42:16;;;;;;;28.67;13.63;;;12.80;97.30;;;;;;5036473;28;20203;-83
2021/09/06 01:44:42;;;;;;;30.57;14.20;;;12.80;97.30;;;;;;5054971;28;20345;-83
2021/09/06 01:47:07;;;;;;;33.27;14.07;;;12.70;97.30;;;;;;5054937;28;20179;-84
2021/09/06 01:49:33;;;;;;;32.13;14.07;;;12.70;97.30;;;;;;5037633;28;20179;-83
2021/09/06 01:51:58;;;;;;;32.43;13.60;;;12.70;97.30;;;;;;5037288;28;20172;-83
2021/09/06 01:54:24;;;;;;;37.57;14.37;;;12.70;97.30;;;;;;5037625;28;20218;-83
2021/09/06 01:56:49;;;;;;;36.70;16.10;;;12.70;97.30;;;;;;5038080;28;20184;-83
2021/09/06 01:59:15;;;;;;;37.33;15.90;;;12.70;97.30;;;;;;5039026;28;20263;-83
2021/09/06 02:01:40;;;;;;;31.73;15.47;;;12.70;97.30;;;;;;5040922;28;20192;-83
2021/09/06 02:04:06;;;;;;;34.27;15.57;;;12.70;97.30;;;;;;5039353;28;20266;-83
2021/09/06 02:06:31;;;;;;;42.30;15.80;;;12.70;97.30;;;;;;5038620;28;20202;-83
2021/09/06 02:08:57;;;;;;;43.77;17.47;;;12.70;97.30;;;;;;5038583;28;20168;-83
2021/09/06 02:11:23;;;;;;;43.80;17.80;;;12.70;97.30;;;;;;5038403;28;20246;-83
2021/09/06 02:13:49;;;;;;;34.50;15.23;;;12.70;97.30;;;;;;5037938;28;20180;-83
2021/09/06 02:16:14;;;;;;;36.43;15.43;;;12.70;97.30;;;;;;5037499;28;20538;-83
2021/09/06 02:18:40;;;;;;;37.77;18.30;;;12.70;97.30;;;;;;5037238;28;20188;-83
2021/09/06 02:21:05;;;;;;;41.90;16.57;;;12.70;97.30;;;;;;5037292;28;20184;-83
2021/09/06 02:23:31;;;;;;;43.03;16.77;;;12.60;97.30;;;;;;5037263;28;20241;-83
2021/09/06 02:25:56;;;;;;;43.90;16.83;;;12.60;97.30;;;;;;5037531;28;20211;-83
2021/09/06 02:28:22;;;;;;;48.60;17.60;;;12.60;97.30;;;;;;5038679;28;20225;-83
2021/09/06 02:30:47;;;;;;;41.40;16.70;;;12.60;97.30;;;;;;5039751;28;20176;-83
2021/09/06 02:33:13;;;;;;;35.83;15.50;;;12.60;97.30;;;;;;5038665;28;20180;-84
2021/09/06 02:35:38;;;;;;;34.47;15.57;;;12.60;97.30;;;;;;5038133;28;20700;-84
2021/09/06 02:38:04;;;;;;;33.23;14.57;;;12.50;97.30;;;;;;5037835;28;20180;-84
2021/09/06 02:40:30;;;;;;;27.70;13.30;;;12.50;97.30;;;;;;5055819;28;20195;-85
2021/09/06 02:42:55;;;;;;;32.57;13.67;;;12.50;97.30;;;;;;5038110;28;20180;-84
2021/09/06 02:45:21;;;;;;;33.97;14.27;;;12.40;97.30;;;;;;5037356;28;20219;-84
2021/09/06 02:47:48;;;;;;;29.40;13.50;;;12.40;97.30;;;;;;5037008;28;20218;-84
2021/09/06 02:50:14;;;;;;;36.37;14.10;;;12.30;97.30;;;;;;5036913;28;20180;-84
2021/09/06 02:52:40;;;;;;;36.93;14.40;;;12.30;97.30;;;;;;5054255;28;20445;-84
2021/09/06 02:55:06;;;;;;;33.70;14.40;;;12.30;97.30;;;;;;5036828;28;20473;-84
2021/09/06 02:57:32;;;;;;;34.47;15.63;;;12.20;97.30;;;;;;5037395;28;20187;-84
2021/09/06 02:59:58;;;;;;;32.50;14.20;;;12.20;97.30;;;;;;5038451;28;20424;-84
2021/09/06 03:02:23;;;;;;;42.90;16.93;;;12.20;97.30;;;;;;5056274;28;20854;-84
2021/09/06 03:04:49;;;;;;;41.30;18.30;;;12.20;97.30;;;;;;5037820;28;20207;-84
2021/09/06 03:07:15;;;;;;;38.20;16.40;;;12.20;97.30;;;;;;5055447;28;20203;-84
2021/09/06 03:09:40;;;;;;;40.67;17.60;;;12.20;97.30;;;;;;5055163;28;20210;-84
2021/09/06 03:12:06;;;;;;;40.23;18.60;;;12.20;97.30;;;;;;5037117;28;20210;-84
2021/09/06 03:14:32;;;;;;;37.90;15.47;;;12.20;97.30;;;;;;5036961;28;20574;-84
2021/09/06 03:16:58;;;;;;;39.03;17.03;;;12.20;97.30;;;;;;5036666;28;20465;-84
2021/09/06 03:19:24;;;;;;;35.37;14.97;;;12.20;97.30;;;;;;5036333;28;20445;-84
2021/09/06 03:21:49;;;;;;;36.03;17.20;;;12.20;97.30;;;;;;5036725;28;20418;-83
2021/09/06 03:24:15;;;;;;;38.23;16.57;;;12.20;97.30;;;;;;5036544;28;20694;-84
2021/09/06 03:26:40;;;;;;;34.30;14.33;;;12.20;97.30;;;;;;5036551;28;20204;-84
2021/09/06 03:29:06;;;;;;;36.23;14.90;;;12.10;97.30;;;;;;5037582;28;20784;-84
2021/09/06 03:31:32;;;;;;;35.47;14.67;;;12.10;97.30;;;;;;5038129;28;20168;-84
2021/09/06 03:34:01;;;;;;;31.53;15.03;;;12.10;97.30;;;;;;5037754;28;20190;-83
2021/09/06 03:36:27;;;;;;;30.87;14.03;;;12.00;97.30;;;;;;5037643;28;20231;-84
2021/09/06 03:38:55;;;;;;;33.20;15.30;;;12.00;97.30;;;;;;5036732;28;20429;-84
2021/09/06 03:41:21;;;;;;;35.67;16.10;;;11.90;97.30;;;;;;5054468;28;20167;-84
2021/09/06 03:43:46;;;;;;;34.37;14.63;;;11.90;97.30;;;;;;5036580;28;20495;-83
2021/09/06 03:46:12;;;;;;;35.00;17.73;;;11.90;97.30;;;;;;5049471;28;20199;-83
2021/09/06 03:48:37;;;;;;;40.03;16.23;;;11.90;97.30;;;;;;5053402;28;20172;-84
2021/09/06 03:51:03;;;;;;;35.97;16.40;;;11.90;97.30;;;;;;5035842;28;20188;-84
2021/09/06 03:53:29;;;;;;;33.83;15.10;;;11.90;97.30;;;;;;5053663;28;20786;-83
2021/09/06 03:55:54;;;;;;;37.00;16.20;;;11.80;97.30;;;;;;5054239;28;20944;-84
2021/09/06 03:58:20;;;;;;;32.50;14.30;;;11.80;97.30;;;;;;5036270;28;20209;-84
2021/09/06 04:00:45;;;;;;;37.07;14.43;;;11.80;97.30;;;;;;5049622;28;20172;-84
2021/09/06 04:03:11;;;;;;;30.70;13.43;;;11.80;97.30;;;;;;5019294;28;20635;-84
2021/09/06 04:05:36;;;;;;;32.80;13.87;;;11.70;97.30;;;;;;5037113;28;20328;-84
2021/09/06 04:08:03;;;;;;;36.13;15.77;;;11.70;97.30;;;;;;5036688;28;20700;-84
2021/09/06 04:10:28;;;;;;;33.10;15.40;;;11.70;97.30;;;;;;5032962;28;20651;-84
2021/09/06 04:12:54;;;;;;;40.10;16.00;;;11.60;97.30;;;;;;5054247;28;20419;-84
2021/09/06 04:15:19;;;;;;;38.80;16.50;;;11.60;97.30;;;;;;5035356;28;20670;-84
2021/09/06 04:17:45;;;;;;;40.43;15.40;;;11.60;97.30;;;;;;5035797;28;20215;-84
2021/09/06 04:20:11;;;;;;;37.43;17.43;;;11.60;97.30;;;;;;5032880;28;20203;-84
2021/09/06 04:22:38;;;;;;;43.87;16.87;;;11.60;97.30;;;;;;5029553;28;20172;-84
2021/09/06 04:25:05;;;;;;;33.70;15.60;;;11.50;97.30;;;;;;5035297;28;20505;-84
2021/09/06 04:27:30;;;;;;;37.77;16.70;;;11.50;97.30;;;;;;5035919;28;20444;-84
2021/09/06 04:29:56;;;;;;;34.60;15.80;;;11.50;97.30;;;;;;5035685;28;21016;-84
2021/09/06 04:32:21;;;;;;;37.50;15.00;;;11.50;97.30;;;;;;5054141;28;20175;-84
2021/09/06 04:34:47;;;;;;;36.90;16.47;;;11.50;97.30;;;;;;5033568;28;20330;-84
2021/09/06 04:37:12;;;;;;;42.23;16.23;;;11.50;97.30;;;;;;5029741;28;20653;-84
2021/09/06 04:39:38;;;;;;;36.30;16.77;;;11.50;97.30;;;;;;5036580;28;20769;-84
2021/09/06 04:42:03;;;;;;;40.10;16.10;;;11.50;97.30;;;;;;5035066;28;20191;-84
2021/09/06 04:44:29;;;;;;;40.57;16.73;;;11.50;97.30;;;;;;5035566;28;20203;-84
2021/09/06 04:46:54;;;;;;;34.87;15.77;;;11.50;97.30;;;;;;5035338;28;20271;-84
2021/09/06 04:49:20;;;;;;;40.60;16.80;;;11.50;97.30;;;;;;5035591;28;20179;-85
2021/09/06 04:51:45;;;;;;;43.73;17.33;;;11.50;97.30;;;;;;5034592;28;20179;-84
2021/09/06 04:54:11;;;;;;;34.63;15.60;;;11.50;97.30;;;;;;5034492;28;20179;-84
2021/09/06 04:56:36;;;;;;;41.80;17.40;;;11.50;97.30;;;;;;5023859;28;20883;-84
2021/09/06 04:59:02;;;;;;;38.27;16.60;;;11.40;97.30;;;;;;5034884;28;20611;-84
2021/09/06 05:01:27;;;;;;;42.30;17.77;;;11.40;97.30;;;;;;5048931;28;20179;-84
2021/09/06 05:03:53;;;;;;;40.40;17.53;;;11.40;97.30;;;;;;5035350;28;20208;-84
2021/09/06 05:06:19;;;;;;;43.60;19.33;;;11.50;97.30;;;;;;5036185;28;20246;-84
2021/09/06 05:08:45;;;;;;;51.10;21.30;;;11.50;97.30;;;;;;5036553;28;21052;-84
2021/09/06 05:11:10;;;;;;;50.97;21.57;;;11.60;97.30;;;;;;5054295;28;20643;-84
2021/09/06 05:13:36;;;;;;;50.93;21.33;;;11.60;97.30;;;;;;5035649;28;20428;-83
2021/09/06 05:16:02;;;;;;;51.37;23.77;;;11.70;97.30;;;;;;5035034;28;20207;-84
2021/09/06 05:18:27;;;;;;;49.87;21.47;;;11.80;97.30;;;;;;5035320;28;20305;-84
2021/09/06 05:20:54;;;;;;;59.37;21.47;;;11.80;97.30;;;;;;5035380;28;20640;-84
2021/09/06 05:23:19;;;;;;;53.90;22.40;;;11.90;97.30;;;;;;5034961;28;20168;-83
2021/09/06 05:25:45;;;;;;;60.23;21.87;;;11.90;97.30;;;;;;5034373;28;20513;-84
2021/09/06 05:28:10;;;;;;;51.10;21.80;;;11.90;97.30;;;;;;5034666;28;20262;-84
2021/09/06 05:30:36;;;;;;;55.90;21.60;;;12.00;97.30;;;;;;5034310;28;20218;-84
2021/09/06 05:33:01;;;;;;;53.77;21.20;;;12.00;97.30;;;;;;5034900;28;20176;-84
2021/09/06 05:35:27;;;;;;;48.87;22.10;;;12.00;97.30;;;;;;5034501;28;20701;-84
2021/09/06 05:37:53;;;;;;;55.20;22.50;;;12.10;97.30;;;;;;5036442;28;20172;-84
2021/09/06 05:40:18;;;;;;;53.17;23.10;;;12.10;97.30;;;;;;5036385;28;20180;-84
2021/09/06 05:42:44;;;;;;;55.13;23.23;;;12.10;97.30;;;;;;5035860;28;20206;-84
2021/09/06 05:45:10;;;;;;;60.97;23.60;;;12.20;97.30;;;;;;5035627;28;20215;-83
2021/09/06 05:47:35;;;;;;;57.30;22.03;;;12.20;97.30;;;;;;5035082;28;20172;-84
2021/09/06 05:50:01;;;;;;;57.67;22.70;;;12.20;97.30;;;;;;5034490;28;20422;-84
2021/09/06 05:52:26;;;;;;;63.83;26.00;;;12.30;97.30;;;;;;5035321;28;20192;-84
2021/09/06 05:54:52;;;;;;;62.40;24.63;;;12.30;97.30;;;;;;5034868;28;20558;-83
2021/09/06 05:57:18;;;;;;;62.47;24.80;;;12.30;97.30;;;;;;5034098;28;20221;-84
2021/09/06 05:59:43;;;;;;;64.30;26.60;;;12.40;97.30;;;;;;5034200;28;20237;-84
2021/09/06 06:02:09;;;;;;;56.70;22.77;;;12.40;97.30;;;;;;5034347;28;20184;-84
2021/09/06 06:04:34;;;;;;;56.03;24.57;;;12.50;97.30;;;;;;5034097;28;20192;-84
2021/09/06 06:07:00;;;;;;;59.80;23.00;;;12.50;97.30;;;;;;5033707;28;20180;-83
2021/09/06 06:09:25;;;;;;;64.70;25.13;;;12.60;97.30;;;;;;5035605;28;20172;-84
2021/09/06 06:11:51;;;;;;;72.37;26.50;;;12.60;97.30;;;;;;5035741;28;20179;-84
2021/09/06 06:14:17;;;;;;;70.80;28.63;;;12.60;97.30;;;;;;5035846;28;20226;-83
2021/09/06 06:16:42;;;;;;;72.20;27.00;;;12.70;97.30;;;;;;5017235;28;20208;-84
2021/09/06 06:19:08;;;;;;;65.70;25.50;;;12.70;97.30;;;;;;5032613;28;20180;-83
2021/09/06 06:21:34;;;;;;;72.00;28.40;;;12.80;97.30;;;;;;5014762;28;20275;-84
2021/09/06 06:23:59;;;;;;;79.00;28.60;;;12.80;97.30;;;;;;5025359;28;20203;-84
2021/09/06 06:26:25;;;;;;;66.77;26.63;;;12.90;97.30;;;;;;5034272;28;20202;-84
2021/09/06 06:28:50;;;;;;;68.63;27.27;;;12.90;97.30;;;;;;5034772;28;20680;-84
2021/09/06 06:31:16;;;;;;;72.40;28.47;;;13.00;97.30;;;;;;5036936;28;20605;-84
2021/09/06 06:33:42;;;;;;;73.63;29.40;;;13.00;97.30;;;;;;5037030;28;20204;-84
2021/09/06 06:36:07;;;;;;;73.67;26.67;;;13.10;97.30;;;;;;5037497;28;20738;-84
2021/09/06 06:38:34;;;;;;;66.50;27.27;;;13.20;97.30;;;;;;5037600;28;20180;-84
2021/09/06 06:41:01;;;;;;;66.83;27.00;;;13.20;97.30;;;;;;5038380;28;20180;-84
2021/09/06 06:43:27;;;;;;;62.83;25.00;;;13.30;97.30;;;;;;5039171;28;20458;-84
2021/09/06 06:45:52;;;;;;;67.67;26.93;;;13.40;97.30;;;;;;5039764;28;20453;-84
2021/09/06 06:48:18;;;;;;;71.03;28.27;;;13.40;97.30;;;;;;5039109;28;20411;-84
2021/09/06 06:50:43;;;;;;;67.17;27.90;;;13.50;97.30;;;;;;5038469;28;20180;-84
2021/09/06 06:53:09;;;;;;;71.80;27.00;;;13.50;97.30;;;;;;5037885;28;20175;-84
2021/09/06 06:55:34;;;;;;;71.30;26.50;;;13.60;97.30;;;;;;5038230;28;20199;-84
2021/09/06 06:58:00;;;;;;;71.10;27.70;;;13.70;97.30;;;;;;5037984;28;20217;-84
2021/09/06 07:00:25;;;;;;;73.33;27.27;;;13.80;97.30;;;;;;5037459;28;20187;-84
2021/09/06 07:02:51;;;;;;;70.80;26.90;;;13.90;97.30;;;;;;5054407;28;20180;-84
2021/09/06 07:05:17;;;;;;;67.13;26.90;;;14.00;97.30;;;;;;5036994;28;20298;-84
2021/09/06 07:07:43;;;;;;;72.00;26.67;;;14.00;97.30;;;;;;5037775;28;20176;-84
2021/09/06 07:10:10;;;;;;;72.07;26.73;;;14.10;97.30;;;;;;5037250;28;20415;-84
2021/09/06 07:12:39;;;;;;;64.43;28.33;;;14.20;97.30;;;;;;5038349;28;20460;-83
2021/09/06 07:15:06;;;;;;;70.20;25.53;;;14.20;97.30;;;;;;5039564;28;20442;-84
2021/09/06 07:17:32;;;;;;;65.47;25.10;;;14.30;97.30;;;;;;5057894;28;20820;-84
2021/09/06 07:19:57;;;;;;;66.77;26.40;;;14.40;97.30;;;;;;5060298;28;20425;-84
2021/09/06 07:22:23;;;;;;;63.23;24.73;;;14.50;97.30;;;;;;5039947;28;20252;-84
2021/09/06 07:24:48;;;;;;;53.33;23.37;;;14.50;97.30;;;;;;5041733;28;20216;-84
2021/09/06 07:27:14;;;;;;;66.67;25.73;;;14.60;97.30;;;;;;5042964;28;20263;-83
2021/09/06 07:29:39;;;;;;;72.90;27.90;;;14.60;97.30;;;;;;5056916;28;20253;-84
2021/09/06 07:32:05;;;;;;;63.33;25.83;;;14.70;97.30;;;;;;5055332;28;20179;-84
2021/09/06 07:34:35;;;;;;;59.97;23.93;;;14.80;97.30;;;;;;5037729;28;20191;-84
2021/09/06 07:37:08;;;;;;;55.00;22.80;;;14.80;97.30;;;;;;5038430;28;20410;-84
2021/09/06 07:39:35;;;;;;;60.97;23.90;;;14.90;97.30;;;;;;5039348;28;20418;-84
2021/09/06 07:42:01;;;;;;;64.80;24.77;;;14.90;97.30;;;;;;5038588;28;20472;-84
2021/09/06 07:44:27;;;;;;;66.07;25.30;;;15.00;97.30;;;;;;5039303;28;20462;-84
2021/09/06 07:46:56;;;;;;;60.20;26.20;;;15.10;97.30;;;;;;5040068;28;20263;-83
2021/09/06 07:49:22;;;;;;;61.53;24.40;;;15.20;97.30;;;;;;5040622;28;20967;-83
2021/09/06 07:51:54;;;;;;;68.17;24.57;;;15.30;97.30;;;;;;5040211;28;20414;-84
2021/09/06 07:54:25;;;;;;;63.03;25.40;;;15.40;97.30;;;;;;5039512;28;20186;-83
2021/09/06 07:56:53;;;;;;;62.63;26.70;;;15.50;97.30;;;;;;5037767;28;20419;-83
2021/09/06 07:59:20;;;;;;;62.13;24.57;;;15.60;97.30;;;;;;5036359;28;20477;-84
2021/09/06 08:01:45;;;;;;;62.77;25.13;;;15.70;97.30;;;;;;5036284;28;20428;-84
2021/09/06 08:04:11;;;;;;;58.27;24.80;;;15.90;97.30;;;;;;5035717;28;20458;-83
2021/09/06 08:06:37;;;;;;;60.20;23.27;;;16.00;97.30;;;;;;5035320;28;20188;-84
2021/09/06 08:09:04;;;;;;;49.47;21.93;;;16.10;97.30;;;;;;5036371;28;20176;-83
2021/09/06 08:11:29;;;;;;;53.47;22.47;;;16.20;97.30;;;;;;5035814;28;20443;-83
2021/09/06 08:13:55;;;;;;;55.13;23.73;;;16.30;97.30;;;;;;5035607;28;21144;-83
2021/09/06 08:16:20;;;;;;;57.83;23.73;;;16.30;97.30;;;;;;5036047;28;20223;-83
2021/09/06 08:18:46;;;;;;;53.37;23.27;;;16.40;97.30;;;;;;5054765;28;20700;-83
2021/09/06 08:21:11;;;;;;;53.73;22.73;;;16.50;97.30;;;;;;5055176;28;20191;-84
2021/09/06 08:23:37;;;;;;;50.33;22.30;;;16.70;97.30;;;;;;5037336;28;20579;-87
2021/09/06 08:26:03;;;;;;;51.80;20.80;;;16.70;97.30;;;;;;5032468;28;20206;-83
2021/09/06 08:28:29;;;;;;;51.23;21.47;;;16.80;97.30;;;;;;5034913;28;20438;-84
2021/09/06 08:30:54;;;;;;;50.40;22.20;;;17.00;97.30;;;;;;5053828;28;20180;-83
2021/09/06 08:33:20;;;;;;;52.93;23.37;;;17.10;97.30;;;;;;5025506;28;20192;-82
2021/09/06 08:35:47;;;;;;;53.30;21.60;;;17.20;97.30;;;;;;5048848;28;20241;-84
2021/09/06 08:38:13;;;;;;;56.10;23.00;;;17.30;97.30;;;;;;5034240;28;20182;-82
2021/09/06 08:40:39;;;;;;;54.13;22.60;;;17.50;97.30;;;;;;5035109;28;20429;-83
2021/09/06 08:43:06;;;;;;;49.40;23.30;;;17.60;97.30;;;;;;5018510;28;20678;-83
2021/09/06 08:45:33;;;;;;;49.27;21.67;;;17.60;97.30;;;;;;5034350;28;20470;-83
2021/09/06 08:47:59;;;;;;;51.33;21.77;;;17.70;97.30;;;;;;5035089;28;20419;-83
2021/09/06 08:50:25;;;;;;;56.83;22.97;;;17.70;97.30;;;;;;5035027;28;20425;-83
2021/09/06 08:52:51;;;;;;;47.47;19.97;;;17.80;97.30;;;;;;5035978;28;20184;-83
2021/09/06 08:55:17;;;;;;;47.63;20.63;;;18.00;97.30;;;;;;5028999;28;20447;-83
2021/09/06 08:57:42;;;;;;;49.93;21.77;;;18.10;97.30;;;;;;5016419;28;20647;-83
2021/09/06 09:00:10;;;;;;;46.50;21.00;;;18.20;97.30;;;;;;5015979;28;20542;-83
2021/09/06 09:02:36;;;;;;;44.63;21.10;;;18.40;97.30;;;;;;5015634;28;20191;-83
2021/09/06 09:05:10;;;;;;;48.03;21.27;;;18.50;97.30;;;;;;5021669;28;20479;-83
2021/09/06 09:07:37;;;;;;;53.73;19.67;;;18.60;97.30;;;;;;5050044;28;20180;-83
2021/09/06 09:10:05;;;;;;;51.00;22.33;;;18.70;97.30;;;;;;5053165;28;20440;-84
2021/09/06 09:12:30;;;;;;;45.63;20.40;;;18.80;97.30;;;;;;5034318;28;20417;-83
2021/09/06 09:14:59;;;;;;;46.53;20.20;;;18.90;97.30;;;;;;5048146;28;20451;-83
2021/09/06 09:17:25;;;;;;;46.33;21.30;;;19.00;97.30;;;;;;5032280;28;20434;-83
2021/09/06 09:19:51;;;;;;;47.37;20.80;;;19.10;97.30;;;;;;5032685;28;20465;-83
2021/09/06 09:22:39;;;;;;;49.00;20.20;;;19.30;97.30;;;;;;5032981;28;20784;-83
2021/09/06 09:25:07;;;;;;;46.50;19.13;;;19.40;97.30;;;;;;5022223;28;20546;-83
2021/09/06 09:27:35;;;;;;;48.37;19.07;;;19.50;97.30;;;;;;5031412;28;20418;-83
2021/09/06 09:30:03;;;;;;;37.30;17.27;;;19.50;97.30;;;;;;5033924;28;20415;-83
2021/09/06 09:32:32;;;;;;;38.67;17.73;;;19.60;97.30;;;;;;5015543;28;20411;-84
2021/09/06 09:34:57;;;;;;;44.13;18.13;;;19.70;97.30;;;;;;5021574;28;20485;-83
2021/09/06 09:37:26;;;;;;;38.80;18.37;;;19.80;97.30;;;;;;5015891;28;20502;-83
2021/09/06 09:39:57;;;;;;;38.30;17.60;;;19.90;97.30;;;;;;5015426;28;20864;-83
2021/09/06 09:42:23;;;;;;;38.50;18.47;;;20.00;97.30;;;;;;5032331;28;20510;-83
2021/09/06 09:44:53;;;;;;;42.20;19.20;;;20.20;97.30;;;;;;5038874;28;20465;-82
2021/09/06 09:47:20;;;;;;;38.63;18.93;;;20.30;97.30;;;;;;5032985;28;20411;-83
2021/09/06 09:49:48;;;;;;;39.67;18.40;;;20.40;97.30;;;;;;5034015;28;20475;-83
2021/09/06 09:52:18;;;;;;;37.93;18.00;;;20.50;97.30;;;;;;5034215;28;20487;-83
2021/09/06 09:54:46;;;;;;;44.43;18.13;;;20.60;97.30;;;;;;5033996;28;20445;-82
2021/09/06 09:57:12;;;;;;;40.73;18.60;;;20.70;97.30;;;;;;5033819;28;20415;-83
2021/09/06 09:59:40;;;;;;;39.70;17.10;;;20.70;97.30;;;;;;5053852;28;20426;-83
2021/09/06 10:02:15;;;;;;;38.97;17.40;;;20.70;97.30;;;;;;5036061;28;20429;-83
2021/09/06 10:04:55;;;;;;;36.83;17.53;;;20.80;97.30;;;;;;5056846;28;20529;-83
2021/09/06 10:07:23;;;;;;;37.23;16.87;;;20.90;97.30;;;;;;5039191;28;20486;-83
2021/09/06 10:09:50;;;;;;;31.60;15.40;;;20.90;97.30;;;;;;5038744;28;20480;-83
2021/09/06 10:12:24;;;;;;;34.40;16.90;;;21.00;97.30;;;;;;5052962;28;20405;-82
2021/09/06 10:14:55;;;;;;;36.07;17.17;;;21.10;97.30;;;;;;5054136;28;20429;-82
2021/09/06 10:17:35;;;;;;;34.47;15.50;;;21.20;97.30;;;;;;5034567;28;20427;-83
2021/09/06 10:20:15;;;;;;;27.30;14.40;;;21.40;97.30;;;;;;5052312;28;20434;-84
2021/09/06 10:22:43;;;;;;;35.93;16.07;;;21.50;97.30;;;;;;5033888;28;20419;-83
2021/09/06 10:25:15;;;;;;;33.63;15.87;;;21.50;97.30;;;;;;5030246;28;20536;-84
2021/09/06 10:27:53;;;;;;;42.00;17.60;;;21.60;97.30;;;;;;5021735;28;21126;-82
2021/09/06 10:30:18;;;;;;;30.23;15.73;;;21.60;97.30;;;;;;5039107;28;20422;-84
2021/09/06 10:32:49;;;;;;;39.73;16.90;;;21.70;97.30;;;;;;5039281;28;20484;-84
2021/09/06 10:35:15;;;;;;;33.20;15.47;;;21.70;97.30;;;;;;5037846;28;20338;-84
2021/09/06 10:37:43;;;;;;;36.67;16.00;;;21.90;97.30;;;;;;5037476;28;20517;-84
2021/09/06 10:40:12;;;;;;;33.50;16.17;;;22.00;97.30;;;;;;5037776;28;20176;-84
2021/09/06 10:42:40;;;;;;;33.00;15.97;;;22.00;95.70;;;;;;5037875;28;20504;-84
2021/09/06 10:45:08;;;;;;;26.33;14.00;;;21.90;94.80;;;;;;5036873;28;21039;-83
2021/09/06 10:47:40;;;;;;;28.40;14.60;;;21.80;96.70;;;;;;5054848;28;20411;-84
2021/09/06 10:50:17;;;;;;;31.60;15.37;;;22.00;97.00;;;;;;5035166;28;20795;-84
2021/09/06 10:52:44;;;;;;;31.60;16.17;;;22.10;95.50;;;;;;5017794;28;20508;-84
2021/09/06 10:55:12;;;;;;;28.30;15.00;;;22.10;94.50;;;;;;5046270;28;20450;-84
2021/09/06 10:57:39;;;;;;;27.27;13.90;;;22.20;96.40;;;;;;5056969;28;20426;-84
2021/09/06 11:00:06;;;;;;;32.67;15.03;;;22.30;95.00;;;;;;5039220;28;20430;-84
2021/09/06 11:02:31;;;;;;;37.10;15.57;;;22.50;95.70;;;;;;5037862;28;20835;-84
2021/09/06 11:04:57;;;;;;;28.87;14.80;;;22.60;94.60;;;;;;5037555;28;20470;-84
2021/09/06 11:07:22;;;;;;;36.93;15.27;;;22.70;95.00;;;;;;5037382;28;20179;-85
2021/09/06 11:09:48;;;;;;;29.30;14.13;;;22.80;96.00;;;;;;5037665;28;20184;-84
2021/09/06 11:12:16;;;;;;;30.97;14.30;;;22.90;95.50;;;;;;5037443;28;20184;-84
2021/09/06 11:14:48;;;;;;;29.90;14.50;;;23.00;95.40;;;;;;5035528;28;20214;-84
2021/09/06 11:17:25;;;;;;;24.33;13.60;;;23.10;94.20;;;;;;5036258;28;21009;-84
2021/09/06 11:19:56;;;;;;;30.27;15.07;;;23.20;94.20;;;;;;5036608;28;20417;-85
2021/09/06 11:22:23;;;;;;;26.73;13.60;;;23.20;91.90;;;;;;5036444;28;20967;-84
2021/09/06 11:24:54;;;;;;;26.40;13.73;;;23.20;91.90;;;;;;5036719;28;20458;-84
2021/09/06 11:27:34;;;;;;;30.37;14.97;;;23.20;92.30;;;;;;5037850;28;20947;-84
2021/09/06 11:30:00;;;;;;;25.60;13.27;;;23.40;91.80;;;;;;5038306;28;20486;-84
2021/09/06 11:32:27;;;;;;;25.70;12.63;;;23.50;92.30;;;;;;5038119;28;20988;-84
2021/09/06 11:35:07;;;;;;;30.53;12.30;;;23.60;91.80;;;;;;5036743;28;20561;-84
2021/09/06 11:37:34;;;;;;;26.20;13.33;;;23.80;91.90;;;;;;5037211;28;20457;-84
2021/09/06 11:40:00;;;;;;;24.97;13.03;;;23.80;90.40;;;;;;5036669;28;20810;-84
2021/09/06 11:42:27;;;;;;;25.37;13.90;;;24.00;89.90;;;;;;5037122;28;20826;-84
2021/09/06 11:44:54;;;;;;;30.13;14.23;;;24.10;90.40;;;;;;5035832;28;20497;-84
2021/09/06 11:47:22;;;;;;;28.13;13.10;;;24.10;88.70;;;;;;5035793;28;20847;-84
2021/09/06 11:49:54;;;;;;;26.83;13.40;;;24.10;89.10;;;;;;5035937;28;20475;-84
2021/09/06 11:52:36;;;;;;;29.40;14.20;;;24.10;90.80;;;;;;5036234;28;20560;-84
2021/09/06 11:55:03;;;;;;;23.43;12.53;;;24.10;89.10;;;;;;5036068;28;20434;-84
2021/09/06 11:57:30;;;;;;;30.10;14.50;;;24.20;89.10;;;;;;5054561;28;20802;-83
2021/09/06 11:59:56;;;;;;;27.20;13.27;;;24.20;87.70;;;;;;5055375;28;20437;-83
2021/09/06 12:02:23;;;;;;;30.43;13.67;;;24.10;88.20;;;;;;5037269;28;20426;-84
2021/09/06 12:04:49;;;;;;;30.07;13.00;;;24.10;90.30;;;;;;5037083;28;20504;-84
2021/09/06 12:07:17;;;;;;;25.73;14.20;;;24.20;91.30;;;;;;5035496;28;20782;-84
2021/09/06 12:09:46;;;;;;;23.23;12.77;;;24.30;88.20;;;;;;5054281;28;20836;-84
2021/09/06 12:12:20;;;;;;;27.53;13.70;;;24.40;89.80;;;;;;5036112;28;20419;-84
2021/09/06 12:14:47;;;;;;;23.50;12.27;;;24.40;87.80;;;;;;5054068;28;20442;-83
2021/09/06 12:17:17;;;;;;;25.90;12.73;;;24.40;88.40;;;;;;5035254;28;20453;-83
2021/09/06 12:19:45;;;;;;;24.87;13.67;;;24.60;89.40;;;;;;5035297;28;20427;-83
2021/09/06 12:22:19;;;;;;;28.97;13.00;;;24.70;88.60;;;;;;5035403;28;20423;-85
2021/09/06 12:24:46;;;;;;;22.90;12.40;;;24.90;88.40;;;;;;5035611;28;20472;-84